createdAt,value
2022-11-26T00:01:25.006Z,14.73
2022-11-26T00:03:53.596Z,16.03
2022-11-26T00:06:30.406Z,16.13
2022-11-26T00:08:59.784Z,19.23
2022-11-26T00:11:29.526Z,17.10
2022-11-26T00:13:57.444Z,23.43
2022-11-26T00:16:30.641Z,15.37
2022-11-26T00:18:58.703Z,15.10
2022-11-26T00:21:38.546Z,20.13
2022-11-26T00:24:14.909Z,19.07
2022-11-26T00:26:44.450Z,17.57
2022-11-26T00:29:12.276Z,15.13
2022-11-26T00:31:40.174Z,16.77
2022-11-26T00:34:08.254Z,15.83
2022-11-26T00:36:36.310Z,15.93
2022-11-26T00:39:07.016Z,18.87
2022-11-26T00:41:38.431Z,18.80
2022-11-26T00:44:18.735Z,16.53
2022-11-26T00:46:46.826Z,15.10
2022-11-26T00:49:15.132Z,19.20
2022-11-26T00:51:44.098Z,19.57
2022-11-26T00:54:15.226Z,18.00
2022-11-26T00:56:43.084Z,16.57
2022-11-26T00:59:14.595Z,20.80
2022-11-26T01:01:42.905Z,18.93
2022-11-26T01:04:11.048Z,18.70
2022-11-26T01:06:42.600Z,14.20
2022-11-26T01:09:17.518Z,14.87
2022-11-26T01:11:49.762Z,19.40
2022-11-26T01:14:23.920Z,18.23
2022-11-26T01:16:54.134Z,19.67
2022-11-26T01:19:22.356Z,13.73
2022-11-26T01:21:50.517Z,13.87
2022-11-26T01:24:18.557Z,18.27
2022-11-26T01:26:47.031Z,21.67
2022-11-26T01:29:21.263Z,15.80
2022-11-26T01:31:53.728Z,18.37
2022-11-26T01:34:22.216Z,21.50
2022-11-26T01:36:50.471Z,17.03
2022-11-26T01:39:21.114Z,23.10
2022-11-26T01:41:58.606Z,21.30
2022-11-26T01:44:29.138Z,17.93
2022-11-26T01:47:01.951Z,20.73
2022-11-26T01:49:33.536Z,23.77
2022-11-26T01:52:06.183Z,22.87
2022-11-26T01:54:39.625Z,21.43
2022-11-26T01:57:12.252Z,24.17
2022-11-26T01:59:48.541Z,28.90
2022-11-26T02:02:19.207Z,20.87
2022-11-26T02:04:56.650Z,27.87
2022-11-26T02:07:24.947Z,24.83
2022-11-26T02:09:53.119Z,23.97
2022-11-26T02:12:21.748Z,21.23
2022-11-26T02:14:50.407Z,22.43
2022-11-26T02:17:26.878Z,19.47
2022-11-26T02:20:27.127Z,24.83
2022-11-26T02:23:36.771Z,25.93
2022-11-26T02:26:46.163Z,21.00
2022-11-26T02:29:25.100Z,23.87
2022-11-26T02:32:00.738Z,27.00
2022-11-26T02:34:39.963Z,25.23
2022-11-26T02:37:15.004Z,24.77
2022-11-26T02:39:42.945Z,24.10
2022-11-26T02:42:27.101Z,25.33
2022-11-26T02:44:57.279Z,29.07
2022-11-26T02:47:28.814Z,24.57
2022-11-26T02:50:00.516Z,25.00
2022-11-26T02:52:29.548Z,25.50
2022-11-26T02:54:58.321Z,20.73
2022-11-26T02:57:31.335Z,24.87
2022-11-26T02:59:59.651Z,21.50
2022-11-26T03:02:35.543Z,27.43
2022-11-26T03:05:06.260Z,23.50
2022-11-26T03:07:37.633Z,19.23
2022-11-26T03:10:07.190Z,26.57
2022-11-26T03:12:35.178Z,18.67
2022-11-26T03:15:03.192Z,21.70
2022-11-26T03:17:32.707Z,23.33
2022-11-26T03:20:00.750Z,27.77
2022-11-26T03:22:29.101Z,20.27
2022-11-26T03:24:56.947Z,21.97
2022-11-26T03:27:24.943Z,20.83
2022-11-26T03:29:53.381Z,22.27
2022-11-26T03:32:21.225Z,22.03
2022-11-26T03:34:50.631Z,23.77
2022-11-26T03:37:20.259Z,22.03
2022-11-26T03:39:48.094Z,19.40
2022-11-26T03:42:15.966Z,21.43
2022-11-26T03:44:43.858Z,22.10
2022-11-26T03:47:11.648Z,21.47
2022-11-26T03:49:39.586Z,20.47
2022-11-26T03:52:08.975Z,21.00
2022-11-26T03:54:37.185Z,20.47
2022-11-26T03:57:05.378Z,18.80
2022-11-26T03:59:33.505Z,18.27
2022-11-26T04:02:01.293Z,19.23
2022-11-26T04:04:29.365Z,18.87
2022-11-26T04:06:57.396Z,25.40
2022-11-26T04:09:26.703Z,16.47
2022-11-26T04:11:54.565Z,16.33
2022-11-26T04:14:22.632Z,15.63
2022-11-26T04:16:50.516Z,16.87
2022-11-26T04:19:18.451Z,26.07
2022-11-26T04:21:46.358Z,24.47
2022-11-26T04:24:14.331Z,34.83
2022-11-26T04:26:43.571Z,24.93
2022-11-26T04:29:11.539Z,18.33
2022-11-26T04:31:39.476Z,21.63
2022-11-26T04:34:07.419Z,27.23
2022-11-26T04:36:35.905Z,18.27
2022-11-26T04:39:03.730Z,18.27
2022-11-26T04:41:31.628Z,18.67
2022-11-26T04:44:00.932Z,18.30
2022-11-26T04:46:29.114Z,37.30
2022-11-26T04:48:57.108Z,30.10
2022-11-26T04:51:25.118Z,23.90
2022-11-26T04:53:55.715Z,15.53
2022-11-26T04:56:24.005Z,18.53
2022-11-26T04:58:52.207Z,20.50
2022-11-26T05:01:21.476Z,16.53
2022-11-26T05:03:49.321Z,33.50
2022-11-26T05:06:17.286Z,22.13
2022-11-26T05:08:45.129Z,27.93
2022-11-26T05:11:13.030Z,37.13
2022-11-26T05:13:41.271Z,32.47
2022-11-26T05:16:09.406Z,21.83
2022-11-26T05:18:38.687Z,23.23
2022-11-26T05:21:06.889Z,22.53
2022-11-26T05:23:34.800Z,27.23
2022-11-26T05:26:02.652Z,21.10
2022-11-26T05:28:30.533Z,17.60
2022-11-26T05:31:02.619Z,21.43
2022-11-26T05:33:30.896Z,16.83
2022-11-26T05:36:00.120Z,18.27
2022-11-26T05:38:28.541Z,22.27
2022-11-26T05:40:56.672Z,22.23
2022-11-26T05:43:24.517Z,20.57
2022-11-26T05:45:52.400Z,17.70
2022-11-26T05:48:20.396Z,17.60
2022-11-26T05:50:53.113Z,18.17
2022-11-26T05:53:23.822Z,20.67
2022-11-26T05:55:51.803Z,17.67
2022-11-26T05:58:19.866Z,16.77
2022-11-26T06:00:47.830Z,17.03
2022-11-26T06:03:20.062Z,19.03
2022-11-26T06:05:48.775Z,19.07
2022-11-26T06:08:16.814Z,15.77
2022-11-26T06:10:46.142Z,19.67
2022-11-26T06:13:14.307Z,17.27
2022-11-26T06:15:42.292Z,18.97
2022-11-26T06:18:10.396Z,16.70
2022-11-26T06:20:39.249Z,16.53
2022-11-26T06:23:07.158Z,15.77
2022-11-26T06:25:35.273Z,13.83
2022-11-26T06:28:04.747Z,15.93
2022-11-26T06:30:32.668Z,19.87
2022-11-26T06:33:00.533Z,16.13
2022-11-26T06:35:28.594Z,17.43
2022-11-26T06:37:57.031Z,19.27
2022-11-26T06:40:25.059Z,18.70
2022-11-26T06:42:54.171Z,20.07
2022-11-26T06:45:24.465Z,17.23
2022-11-26T06:47:53.240Z,26.13
2022-11-26T06:50:23.713Z,24.47
2022-11-26T06:52:53.013Z,25.17
2022-11-26T06:55:21.515Z,24.47
2022-11-26T06:57:51.437Z,27.43
2022-11-26T07:00:20.312Z,25.00
2022-11-26T07:02:49.981Z,25.40
2022-11-26T07:05:18.404Z,22.83
2022-11-26T07:07:46.339Z,26.70
2022-11-26T07:10:14.297Z,31.00
2022-11-26T07:12:42.213Z,28.10
2022-11-26T07:15:11.215Z,30.57
2022-11-26T07:17:39.469Z,32.53
2022-11-26T07:20:10.198Z,31.13
2022-11-26T07:22:38.085Z,32.13
2022-11-26T07:25:12.111Z,39.30
2022-11-26T07:27:41.083Z,32.07
2022-11-26T07:30:10.457Z,34.70
2022-11-26T07:32:38.516Z,27.87
2022-11-26T07:35:08.790Z,34.93
2022-11-26T07:37:36.835Z,38.67
2022-11-26T07:40:05.554Z,37.67
2022-11-26T07:42:34.481Z,36.93
2022-11-26T07:45:03.788Z,32.43
2022-11-26T07:47:31.656Z,36.17
2022-11-26T07:49:59.655Z,40.60
2022-11-26T07:52:29.160Z,29.83
2022-11-26T07:54:57.092Z,32.90
2022-11-26T07:57:25.460Z,37.47
2022-11-26T07:59:53.438Z,44.30
2022-11-26T08:02:21.409Z,39.13
2022-11-26T08:04:49.818Z,34.13
2022-11-26T08:07:24.330Z,34.37
2022-11-26T08:09:55.552Z,42.20
2022-11-26T08:12:23.654Z,42.33
2022-11-26T08:14:51.515Z,36.87
2022-11-26T08:17:19.605Z,39.80
2022-11-26T08:19:47.488Z,37.43
2022-11-26T08:22:15.395Z,37.80
2022-11-26T08:24:43.264Z,43.30
2022-11-26T08:27:12.649Z,40.73
2022-11-26T08:29:40.759Z,36.03
2022-11-26T08:32:08.799Z,35.67
2022-11-26T08:34:36.839Z,31.33
2022-11-26T08:37:04.802Z,32.43
2022-11-26T08:39:32.729Z,32.33
2022-11-26T08:42:00.525Z,32.87
2022-11-26T08:44:29.764Z,28.33
2022-11-26T08:46:57.688Z,33.17
2022-11-26T08:49:25.673Z,32.97
2022-11-26T08:51:56.563Z,35.60
2022-11-26T08:54:24.765Z,30.90
2022-11-26T08:56:52.601Z,27.37
2022-11-26T08:59:22.969Z,36.67
2022-11-26T09:01:52.442Z,31.80
2022-11-26T09:04:20.455Z,30.10
2022-11-26T09:06:48.448Z,31.87
2022-11-26T09:09:17.717Z,34.10
2022-11-26T09:11:51.252Z,31.93
2022-11-26T09:14:23.116Z,32.20
2022-11-26T09:16:52.394Z,33.10
2022-11-26T09:19:20.339Z,29.47
2022-11-26T09:21:48.735Z,35.23
2022-11-26T09:24:17.537Z,32.33
2022-11-26T09:26:48.554Z,34.43
2022-11-26T09:29:19.557Z,28.53
2022-11-26T09:32:21.862Z,28.13
2022-11-26T09:34:38.626Z,32.17
2022-11-26T09:37:06.817Z,28.40
2022-11-26T09:39:35.030Z,31.90
2022-11-26T09:42:07.902Z,29.93
2022-11-26T09:44:53.527Z,29.83
2022-11-26T09:47:23.758Z,28.67
2022-11-26T09:50:03.837Z,26.10
2022-11-26T09:52:41.996Z,31.50
2022-11-26T09:55:16.460Z,30.40
2022-11-26T09:57:50.595Z,26.63
2022-11-26T10:00:28.226Z,28.57
2022-11-26T10:02:58.164Z,25.50
2022-11-26T10:05:38.932Z,26.43
2022-11-26T10:08:17.395Z,28.97
2022-11-26T10:10:53.912Z,26.00
2022-11-26T10:13:29.202Z,22.90
2022-11-26T10:16:08.928Z,26.63
2022-11-26T10:18:46.913Z,24.70
2022-11-26T10:21:37.916Z,25.40
2022-11-26T10:24:22.489Z,28.33
2022-11-26T10:26:51.037Z,23.53
2022-11-26T10:29:24.092Z,23.93
2022-11-26T10:31:57.643Z,22.27
2022-11-26T10:34:33.379Z,23.07
2022-11-26T10:37:05.539Z,23.03
2022-11-26T10:39:33.439Z,27.63
2022-11-26T10:42:05.597Z,23.40
2022-11-26T10:44:40.571Z,21.70
2022-11-26T10:47:29.691Z,28.07
2022-11-26T10:50:40.007Z,25.27
2022-11-26T10:53:07.468Z,23.13
2022-11-26T10:55:40.075Z,23.27
2022-11-26T10:58:17.254Z,25.70
2022-11-26T11:00:54.764Z,23.97
2022-11-26T11:03:44.494Z,25.33
2022-11-26T11:06:28.150Z,22.93
2022-11-26T11:08:57.621Z,24.80
2022-11-26T11:11:27.464Z,23.00
2022-11-26T11:13:56.217Z,24.27
2022-11-26T11:16:28.479Z,26.10
2022-11-26T11:18:59.367Z,29.23
2022-11-26T11:21:31.342Z,24.23
2022-11-26T11:24:15.345Z,24.00
2022-11-26T11:26:46.424Z,23.97
2022-11-26T11:29:33.674Z,26.50
2022-11-26T11:32:04.519Z,28.37
2022-11-26T11:34:35.134Z,28.03
2022-11-26T11:37:05.752Z,25.17
2022-11-26T11:39:36.513Z,28.53
2022-11-26T11:42:09.868Z,28.53
2022-11-26T11:44:43.147Z,25.10
2022-11-26T11:47:32.930Z,27.70
2022-11-26T11:50:22.129Z,27.83
2022-11-26T11:53:20.273Z,31.20
2022-11-26T11:56:12.719Z,24.13
2022-11-26T11:59:08.063Z,27.00
2022-11-26T12:01:54.553Z,29.83
2022-11-26T12:04:32.533Z,25.03
2022-11-26T12:07:28.480Z,31.73
2022-11-26T12:10:06.785Z,27.90
2022-11-26T12:12:39.521Z,26.87
2022-11-26T12:15:13.062Z,23.90
2022-11-26T12:17:46.127Z,31.80
2022-11-26T12:20:20.176Z,29.03
2022-11-26T12:22:58.316Z,25.77
2022-11-26T12:25:35.325Z,28.93
2022-11-26T12:28:14.052Z,27.23
2022-11-26T12:30:51.475Z,28.83
2022-11-26T12:33:25.086Z,30.43
2022-11-26T12:35:56.558Z,24.23
2022-11-26T12:38:29.062Z,30.03
2022-11-26T12:41:02.523Z,29.57
2022-11-26T12:43:47.677Z,27.53
2022-11-26T12:46:20.764Z,27.47
2022-11-26T12:48:55.990Z,31.03
2022-11-26T12:51:34.573Z,30.13
2022-11-26T12:54:12.013Z,31.30
2022-11-26T12:56:49.968Z,25.17
2022-11-26T12:59:26.920Z,26.07
2022-11-26T13:01:54.961Z,28.97
2022-11-26T13:04:37.741Z,29.93
2022-11-26T13:07:26.897Z,30.30
2022-11-26T13:10:05.469Z,29.00
2022-11-26T13:12:45.733Z,31.90
2022-11-26T13:15:23.096Z,34.70
2022-11-26T13:17:52.980Z,30.87
2022-11-26T13:20:54.900Z,31.97
2022-11-26T13:24:03.594Z,31.90
2022-11-26T13:26:49.342Z,30.30
2022-11-26T13:29:31.165Z,33.63
2022-11-26T13:32:19.824Z,29.93
2022-11-26T13:35:05.756Z,35.03
2022-11-26T13:37:56.153Z,33.53
2022-11-26T13:40:50.299Z,30.23
2022-11-26T13:43:55.718Z,26.97
2022-11-26T13:46:25.855Z,33.20
2022-11-26T13:49:01.350Z,32.13
2022-11-26T13:51:37.142Z,28.50
2022-11-26T13:54:12.441Z,29.17
2022-11-26T13:56:42.559Z,24.10
2022-11-26T13:59:18.289Z,25.20
2022-11-26T14:01:47.302Z,28.57
2022-11-26T14:04:37.865Z,31.20
2022-11-26T14:07:21.933Z,35.00
2022-11-26T14:09:53.797Z,36.10
2022-11-26T14:12:23.002Z,27.70
2022-11-26T14:14:51.989Z,32.07
2022-11-26T14:17:24.988Z,29.37
2022-11-26T14:20:05.676Z,32.20
2022-11-26T14:22:35.730Z,31.43
2022-11-26T14:25:06.021Z,31.57
2022-11-26T14:27:35.603Z,35.50
2022-11-26T14:30:26.894Z,36.10
2022-11-26T14:33:10.341Z,33.90
2022-11-26T14:35:41.296Z,35.07
2022-11-26T14:38:24.764Z,37.63
2022-11-26T14:40:58.126Z,39.83
2022-11-26T14:43:26.140Z,35.97
2022-11-26T14:46:12.697Z,33.60
2022-11-26T14:48:44.499Z,29.63
2022-11-26T14:51:21.852Z,35.77
2022-11-26T14:53:51.050Z,31.83
2022-11-26T14:56:21.064Z,39.10
2022-11-26T14:58:52.654Z,34.37
2022-11-26T15:01:22.823Z,32.43
2022-11-26T15:03:59.085Z,33.37
2022-11-26T15:06:34.858Z,30.27
2022-11-26T15:09:15.345Z,31.10
2022-11-26T15:11:48.825Z,41.90
2022-11-26T15:14:22.473Z,34.77
2022-11-26T15:16:56.751Z,33.97
2022-11-26T15:19:25.688Z,32.70
2022-11-26T15:21:55.387Z,34.27
2022-11-26T15:24:23.464Z,36.40
2022-11-26T15:26:51.948Z,35.33
2022-11-26T15:29:41.083Z,34.10
2022-11-26T15:32:27.903Z,33.90
2022-11-26T15:34:58.528Z,33.37
2022-11-26T15:37:28.386Z,33.07
2022-11-26T15:40:11.254Z,36.33
2022-11-26T15:42:40.618Z,36.17
2022-11-26T15:45:16.340Z,32.57
2022-11-26T15:47:47.885Z,31.63
2022-11-26T15:50:27.507Z,33.90
2022-11-26T15:53:01.970Z,34.53
2022-11-26T15:55:33.383Z,35.07
2022-11-26T15:58:05.755Z,30.10
2022-11-26T16:00:37.404Z,33.47
2022-11-26T16:03:06.137Z,32.50
2022-11-26T16:05:38.125Z,35.17
2022-11-26T16:08:25.041Z,33.30
2022-11-26T16:10:57.136Z,34.33
2022-11-26T16:13:28.995Z,32.93
2022-11-26T16:16:02.102Z,40.63
2022-11-26T16:18:37.490Z,40.47
2022-11-26T16:21:08.336Z,36.37
2022-11-26T16:23:37.836Z,34.17
2022-11-26T16:26:15.312Z,38.37
2022-11-26T16:28:43.721Z,38.20
2022-11-26T16:31:11.774Z,40.70
2022-11-26T16:33:39.912Z,35.93
2022-11-26T16:36:19.162Z,38.53
2022-11-26T16:38:49.156Z,37.90
2022-11-26T16:41:19.057Z,39.70
2022-11-26T16:43:47.109Z,39.93
2022-11-26T16:46:17.623Z,35.37
2022-11-26T16:48:47.164Z,42.10
2022-11-26T16:51:15.366Z,39.93
2022-11-26T16:53:43.349Z,39.50
2022-11-26T16:56:20.585Z,34.30
2022-11-26T16:58:48.920Z,39.77
2022-11-26T17:01:17.281Z,38.63
2022-11-26T17:03:45.431Z,38.33
2022-11-26T17:06:17.021Z,42.10
2022-11-26T17:08:49.664Z,37.33
2022-11-26T17:11:19.587Z,41.93
2022-11-26T17:13:47.688Z,38.67
2022-11-26T17:16:19.210Z,37.73
2022-11-26T17:18:47.200Z,38.93
2022-11-26T17:21:15.529Z,37.37
2022-11-26T17:23:44.659Z,36.97
2022-11-26T17:26:21.351Z,37.93
2022-11-26T17:28:50.437Z,38.80
2022-11-26T17:31:18.954Z,37.63
2022-11-26T17:33:47.110Z,40.13
2022-11-26T17:36:20.438Z,39.23
2022-11-26T17:38:49.322Z,37.47
2022-11-26T17:41:17.679Z,42.80
2022-11-26T17:43:47.193Z,39.50
2022-11-26T17:46:17.669Z,42.10
2022-11-26T17:48:46.095Z,40.53
2022-11-26T17:51:15.272Z,39.07
2022-11-26T17:53:44.135Z,45.47
2022-11-26T17:56:24.102Z,41.60
2022-11-26T17:58:54.080Z,42.73
2022-11-26T18:01:22.597Z,44.50
2022-11-26T18:03:52.366Z,50.03
2022-11-26T18:06:27.152Z,48.83
2022-11-26T18:08:54.988Z,47.70
2022-11-26T18:11:43.088Z,45.33
2022-11-26T18:14:12.660Z,50.97
2022-11-26T18:16:41.088Z,48.30
2022-11-26T18:19:10.691Z,49.63
2022-11-26T18:21:38.795Z,47.47
2022-11-26T18:24:07.949Z,52.47
2022-11-26T18:26:36.764Z,46.87
2022-11-26T18:29:05.238Z,45.90
2022-11-26T18:31:39.501Z,46.27
2022-11-26T18:34:08.606Z,46.63
2022-11-26T18:36:36.419Z,51.23
2022-11-26T18:39:04.851Z,45.23
2022-11-26T18:41:33.110Z,41.50
2022-11-26T18:44:02.331Z,50.43
2022-11-26T18:46:30.670Z,51.70
2022-11-26T18:49:00.566Z,45.70
2022-11-26T18:51:28.897Z,47.30
2022-11-26T18:53:56.791Z,54.93
2022-11-26T18:56:25.627Z,54.27
2022-11-26T18:58:53.863Z,53.10
2022-11-26T19:01:23.407Z,55.07
2022-11-26T19:03:52.205Z,58.03
2022-11-26T19:06:24.028Z,49.30
2022-11-26T19:08:58.300Z,46.87
2022-11-26T19:11:26.568Z,49.57
2022-11-26T19:13:56.000Z,49.87
2022-11-26T19:16:25.295Z,46.93
2022-11-26T19:18:53.167Z,43.27
2022-11-26T19:21:25.204Z,49.00
2022-11-26T19:23:54.295Z,48.77
2022-11-26T19:26:22.876Z,52.00
2022-11-26T19:28:51.428Z,53.87
2022-11-26T19:31:21.128Z,57.40
2022-11-26T19:33:54.058Z,54.27
2022-11-26T19:36:23.520Z,48.43
2022-11-26T19:38:56.058Z,45.33
2022-11-26T19:41:25.938Z,47.83
2022-11-26T19:43:54.811Z,44.23
2022-11-26T19:46:24.901Z,47.47
2022-11-26T19:48:54.440Z,50.63
2022-11-26T19:51:26.278Z,52.27
2022-11-26T19:53:55.861Z,46.80
2022-11-26T19:56:25.811Z,55.47
2022-11-26T19:58:55.209Z,47.97
2022-11-26T20:01:23.543Z,52.50
2022-11-26T20:03:51.794Z,53.83
2022-11-26T20:06:22.063Z,51.10
2022-11-26T20:08:51.503Z,57.57
2022-11-26T20:11:20.202Z,54.30
2022-11-26T20:13:50.027Z,53.70
2022-11-26T20:16:20.578Z,57.90
2022-11-26T20:18:49.019Z,54.70
2022-11-26T20:21:20.805Z,59.73
2022-11-26T20:23:49.239Z,55.47
2022-11-26T20:26:21.816Z,58.73
2022-11-26T20:28:50.525Z,56.20
2022-11-26T20:31:23.264Z,56.73
2022-11-26T20:33:53.018Z,56.57
2022-11-26T20:36:23.109Z,51.00
2022-11-26T20:38:53.461Z,58.33
2022-11-26T20:41:23.443Z,53.10
2022-11-26T20:43:57.947Z,56.97
2022-11-26T20:46:27.540Z,49.93
2022-11-26T20:48:56.307Z,57.03
2022-11-26T20:51:24.560Z,52.70
2022-11-26T20:53:53.467Z,50.90
2022-11-26T20:56:23.376Z,46.07
2022-11-26T20:58:51.960Z,48.93
2022-11-26T21:01:22.357Z,48.10
2022-11-26T21:03:51.039Z,46.97
2022-11-26T21:06:25.880Z,45.67
2022-11-26T21:08:57.680Z,44.70
2022-11-26T21:11:27.015Z,48.47
2022-11-26T21:13:54.883Z,47.90
2022-11-26T21:16:23.434Z,50.57
2022-11-26T21:18:53.830Z,46.97
2022-11-26T21:21:22.427Z,51.57
2022-11-26T21:23:50.479Z,47.33
2022-11-26T21:26:19.775Z,42.77
2022-11-26T21:28:52.832Z,49.90
2022-11-26T21:31:21.704Z,49.60
2022-11-26T21:33:55.722Z,52.23
2022-11-26T21:36:25.096Z,54.73
2022-11-26T21:38:53.253Z,43.50
2022-11-26T21:41:22.005Z,45.13
2022-11-26T21:43:50.963Z,49.03
2022-11-26T21:46:22.891Z,42.30
2022-11-26T21:48:52.464Z,49.40
2022-11-26T21:51:20.856Z,45.43
2022-11-26T21:53:49.926Z,46.33
2022-11-26T21:56:21.342Z,45.53
2022-11-26T21:58:49.919Z,42.67
2022-11-26T22:01:23.986Z,43.07
2022-11-26T22:03:53.700Z,44.73
2022-11-26T22:06:24.192Z,41.83
2022-11-26T22:08:52.703Z,44.20
2022-11-26T22:11:24.065Z,41.20
2022-11-26T22:13:52.556Z,43.83
2022-11-26T22:16:23.956Z,44.33
2022-11-26T22:18:56.090Z,45.70
2022-11-26T22:21:25.812Z,40.97
2022-11-26T22:23:54.493Z,42.17
2022-11-26T22:26:22.882Z,42.57
2022-11-26T22:28:52.469Z,43.73
2022-11-26T22:31:25.334Z,44.27
2022-11-26T22:33:56.403Z,46.07
2022-11-26T22:36:29.296Z,44.77
2022-11-26T22:38:58.675Z,43.90
2022-11-26T22:41:27.212Z,43.53
2022-11-26T22:43:55.356Z,43.17
2022-11-26T22:46:25.625Z,44.30
2022-11-26T22:49:00.365Z,44.97
2022-11-26T22:51:30.483Z,42.73
2022-11-26T22:54:00.050Z,43.20
2022-11-26T22:56:28.316Z,46.83
2022-11-26T22:58:56.618Z,39.17
2022-11-26T23:01:27.960Z,38.63
2022-11-26T23:04:01.675Z,41.37
2022-11-26T23:06:31.322Z,36.33
2022-11-26T23:09:01.529Z,34.57
2022-11-26T23:11:31.250Z,37.43
2022-11-26T23:13:59.283Z,43.63
2022-11-26T23:16:29.272Z,45.30
2022-11-26T23:18:58.629Z,37.73
2022-11-26T23:21:28.894Z,37.07
2022-11-26T23:23:57.391Z,40.33
2022-11-26T23:26:27.909Z,37.67
2022-11-26T23:28:56.640Z,37.97
2022-11-26T23:31:26.864Z,34.70
2022-11-26T23:33:56.553Z,36.27
2022-11-26T23:36:25.261Z,42.40
2022-11-26T23:38:53.372Z,33.47
2022-11-26T23:41:21.616Z,37.67
2022-11-26T23:43:49.591Z,40.23
2022-11-26T23:46:19.807Z,37.30
2022-11-26T23:48:48.308Z,36.70
2022-11-26T23:51:19.506Z,32.57
2022-11-26T23:53:49.020Z,34.23
2022-11-26T23:56:19.639Z,36.20
2022-11-26T23:58:49.922Z,36.17
